Terminal Aerodrome Forecast
Issued by NWS Knoxville/Tri Cities, TN

Home | Current Version | Previous Version | Text Only | Print | Product List | Glossary On
Versions: 1 2 3 4 5 6 7 8 9 10 11 12 13 14 15 16 17 18 19 20 21 22 23 24
000
FTUS44 KMRX 051725
TAFTRI
TAF
KTRI 051725Z 0518/0618 VRB02KT P6SM FEW060 SCT090
      TEMPO 0521/0601 BKN090
     FM060900 00000KT 4SM BR SKC
     FM061200 VRB02KT P6SM FEW040=

USA.gov is the U.S. government's official web portal to all federal, state and local government web resources and services.